Home > Products > Valid Products > TAF

000
FTUS43 KILX 280400 AAA
TAFSPI
TAF AMD
KSPI 280414Z 2804/2824 12005KT P6SM BKN015
     FM280500 12005KT P6SM SCT015
     FM281300 15012KT P6SM SCT250
     FM281600 15015G25KT P6SM SCT250=



000
FTUS43 KILX 280400 AAA
TAFBMI
TAF AMD
KBMI 280413Z 2804/2824 10005KT P6SM BKN015
     FM280500 12005KT P6SM SCT015
     FM281300 15012KT P6SM SCT250
     FM281600 15016G26KT P6SM SCT250=



000
FTUS43 KILX 272300
TAFCMI
TAF
KCMI 272338Z 2800/2824 36007KT P6SM BKN015
     FM280100 02005KT P6SM SCT015
     FM280900 10005KT P6SM SKC
     FM281400 15012KT P6SM SCT250
     FM281900 15015G25KT P6SM SCT250=



000
FTUS43 KILX 272300
TAFPIA
TAF
KPIA 272338Z 2800/2824 03005KT P6SM BKN015
     FM280700 10005KT P6SM SCT015
     FM281300 15012KT P6SM SCT250
     FM281600 15016G26KT P6SM SCT250=



000
FTUS43 KILX 272300
TAFSPI
TAF
KSPI 272338Z 2800/2824 03005KT P6SM BKN015
     FM280600 10005KT P6SM SCT015
     FM281300 15012KT P6SM SCT250
     FM281600 15015G25KT P6SM SCT250=



000
FTUS43 KILX 272300
TAFDEC
TAF
KDEC 272338Z 2800/2824 03005KT P6SM BKN025
     FM280400 08005KT P6SM SCT015
     FM281400 15012KT P6SM SCT250
     FM281700 15015G25KT P6SM SCT250=



000
FTUS43 KILX 272300
TAFBMI
TAF
KBMI 272338Z 2800/2824 36005KT P6SM BKN015
     FM280400 08005KT P6SM SCT015
     FM281300 15012KT P6SM SCT250
     FM281600 15016G26KT P6SM SCT250=



000
FTUS43 KILX 272100 AAA
TAFDEC
TAF AMD
KDEC 272107Z 2721/2818 03009KT P6SM OVC015
     FM280000 05006KT 5SM BR OVC020
     FM280300 VRB03KT P6SM FEW020 BKN035
     FM281500 15011KT P6SM SCT200=



000
FTUS43 KILX 272100 AAA
TAFBMI
TAF AMD
KBMI 272105Z 2721/2818 06008KT P6SM OVC017
     FM280200 10005KT P6SM BKN020
     FM280500 12006KT P6SM SCT030
     FM281600 15013KT P6SM SCT200=



000
FTUS43 KILX 272100 AAA
TAFSPI
TAF AMD
KSPI 272105Z 2721/2818 01008KT P6SM OVC015
     FM280200 09005KT P6SM BKN020
     FM280500 12005KT P6SM FEW020 BKN035
     FM281500 15014KT P6SM SCT200=



000
FTUS43 KILX 272100 AAA
TAFPIA
TAF AMD
KPIA 272102Z 2721/2818 05007KT P6SM OVC012
     FM280100 10005KT P6SM BKN020
     FM280500 12005KT P6SM FEW020 BKN035
     FM281500 15013KT P6SM SCT200=



000
FTUS43 KILX 272000 AAA
TAFCMI
TAF AMD
KCMI 272031Z 2721/2818 02007KT P6SM SCT014 BKN020 BKN040
     FM280000 05005KT P6SM SCT015 BKN050
     FM280500 10006KT P6SM SCT030
     FM281500 15011KT P6SM SCT200=



000
FTUS43 KILX 271700
TAFPIA
TAF
KPIA 271739Z 2718/2818 05007KT P6SM OVC012
     FM280100 10005KT P6SM BKN020
     FM280500 12005KT P6SM FEW020 BKN035
     FM281500 15013KT P6SM SCT200=



000
FTUS43 KILX 271700
TAFCMI
TAF
KCMI 271739Z 2718/2818 05008KT P6SM OVC012
     FM280200 06005KT P6SM SCT015 BKN035
     FM280500 11006KT P6SM SCT030
     FM281500 15011KT P6SM SCT200=



000
FTUS43 KILX 271700
TAFSPI
TAF
KSPI 271739Z 2718/2818 04009KT 6SM BR OVC011
     FM272100 05008KT P6SM OVC015
     FM280200 09005KT P6SM BKN020
     FM280500 12005KT P6SM FEW020 BKN035
     FM281500 15014KT P6SM SCT200=



000
FTUS43 KILX 271700
TAFDEC
TAF
KDEC 271739Z 2718/2818 03009KT P6SM OVC015
     FM280000 05006KT P6SM OVC020
     FM280300 VRB03KT P6SM FEW020 BKN035
     FM281500 15011KT P6SM SCT200=



000
FTUS43 KILX 271700
TAFBMI
TAF
KBMI 271739Z 2718/2818 05008KT 5SM BR BKN007 OVC015
     FM271900 06008KT P6SM OVC015
     FM280200 10005KT P6SM BKN020
     FM280500 12006KT P6SM SCT030
     FM281600 15013KT P6SM SCT200=



000
FTUS43 KILX 271600 AAA
TAFPIA
TAF AMD
KPIA 271612Z 2716/2812 02009KT P6SM OVC011
     FM272100 06007KT P6SM OVC015
     FM280100 11005KT P6SM OVC012=



000
FTUS43 KILX 271600 AAA
TAFCMI
TAF AMD
KCMI 271605Z 2716/2812 03011KT 6SM HZ OVC012
     FM280300 06005KT P6SM SCT020 BKN050
     FM280600 09006KT P6SM SCT020=



000
FTUS43 KILX 271600 AAA
TAFDEC
TAF AMD
KDEC 271601Z 2716/2812 03008KT 6SM BR OVC009
     FM271800 03010KT P6SM SCT006 OVC015
     FM272200 04009KT P6SM OVC015
     FM280200 VRB03KT P6SM BKN020=



000
FTUS43 KILX 271500 AAB
TAFSPI
TAF AMD
KSPI 271558Z 2716/2812 03011KT 6SM HZ OVC011
     FM272100 04008KT P6SM OVC015
     FM280200 VRB03KT P6SM BKN020=



000
FTUS43 KILX 271500 AAA
TAFSPI
TAF AMD
KSPI 271541Z 2716/2812 01005KT 5SM BR SCT015 OVC035
     FM271600 02006KT 6SM BR SCT006 BKN011 OVC035
     FM272100 04008KT P6SM OVC015
     FM280200 VRB03KT P6SM BKN020=



000
FTUS43 KILX 271500 AAA
TAFSPI
TAF AMD
KSPI 271541Z 2716/2812 01005KT 5SM BR SCT015 OVC035
     FM271600 02006KT 6SM BR SCT006 BKN011 OVC035
     FM272100 04008KT P6SM OVC015
     FM280200 VRB03KT P6SM BKN020=



000
FTUS43 KILX 271500 AAA
TAFBMI
TAF AMD
KBMI 271536Z 2716/2812 02009KT 5SM BR BKN007 OVC015
     FM271800 05010KT P6SM OVC015
     FM280200 10005KT P6SM BKN015=



000
FTUS43 KILX 271300 AAA
TAFSPI
TAF AMD
KSPI 271332Z 2714/2812 34010KT 6SM BR SCT015 OVC035
     FM271500 02006KT 5SM BR SCT006 OVC015
     FM272100 04008KT P6SM OVC015
     FM280200 VRB03KT P6SM BKN020=



000
FTUS43 KILX 271300 AAA
TAFCMI
TAF AMD
KCMI 271305Z 2713/2812 36009KT 6SM BR BKN008 OVC015
     FM271800 02010KT P6SM BKN015
     FM280200 06005KT P6SM SCT020=



000
FTUS43 KILX 271300 AAA
TAFBMI
TAF AMD
KBMI 271303Z 2713/2812 02012KT 5SM BR OVC004
     FM271700 03014KT 6SM BR BKN007 OVC015
     FM272000 04010KT P6SM OVC015
     FM280200 08005KT P6SM SCT020=



000
FTUS43 KILX 271100
TAFDEC
TAF
KDEC 271130Z 2712/2812 36013KT 4SM BR OVC007
     FM271500 02012KT 5SM BR SCT006 OVC015
     FM272200 04009KT P6SM OVC020
     FM280200 VRB03KT P6SM BKN020=



000
FTUS43 KILX 271100
TAFPIA
TAF
KPIA 271130Z 2712/2812 02008KT 5SM BR SCT012 OVC035
     FM271300 02012KT 5SM BR SCT007 OVC035
      TEMPO 2713/2716 3SM BR BKN007 OVC015
     FM271700 04009KT P6SM OVC015
     FM272100 05006KT P6SM BKN025
     FM280100 09003KT P6SM SCT025=



000
FTUS43 KILX 271100
TAFCMI
TAF
KCMI 271130Z 2712/2812 36009KT 3SM BR OVC006
     FM271500 02010KT 4SM BR OVC007
     FM271800 02010KT P6SM BKN015
     FM280200 06005KT P6SM SCT020=



000
FTUS43 KILX 271100
TAFBMI
TAF
KBMI 271130Z 2712/2812 02012KT 2SM BR OVC004
     FM271700 03014KT 4SM BR BKN007 OVC015
     FM272000 04010KT P6SM OVC015
     FM280200 08005KT P6SM SCT020=



000
FTUS43 KILX 271100
TAFSPI
TAF
KSPI 271130Z 2712/2812 36010KT P6SM SCT015 OVC035
      TEMPO 2712/2715 4SM BR OVC015
     FM271500 02006KT 5SM BR SCT006 OVC015
     FM272100 04008KT P6SM OVC015
     FM280200 VRB03KT P6SM BKN020=



000
FTUS43 KILX 271000 AAA
TAFDEC
TAF AMD
KDEC 271007Z 2710/2806 36015KT 4SM BR OVC015
     FM271400 36008G15KT 6SM BR OVC015
     FM271900 02006KT P6SM BKN015
     FM280300 VRB03KT P6SM BKN015=



000
FTUS43 KILX 270800 AAA
TAFSPI
TAF AMD
KSPI 270831Z 2709/2806 33006KT P6SM BKN035 OVC060
     FM271200 35008KT P6SM OVC025
     FM271800 02006KT P6SM SCT006 OVC015
     FM280200 VRB03KT P6SM BKN030=



000
FTUS43 KILX 270800 AAA
TAFPIA
TAF AMD
KPIA 270810Z 2708/2806 35007KT 5SM BR SCT012 OVC035
      TEMPO 2709/2711 3SM BR OVC012
     FM271400 35008G14KT 6SM BR OVC018
     FM271800 02006KT P6SM BKN015
     FM280200 VRB04KT P6SM BKN015=



000
FTUS43 KILX 270500 CCA
TAFBMI
TAF COR
KBMI 270539Z 2706/2806 23003KT 2SM BR OVC007
     FM270900 33007KT 3SM BR OVC007
     FM271500 36008G15KT 5SM BR OVC007
     FM272000 03006KT P6SM BKN008
     FM280300 VRB05KT P6SM BKN012=



000
FTUS43 KILX 270500 CCA
TAFPIA
TAF COR
KPIA 270539Z 2706/2806 VRB03KT 4SM BR OVC018
     FM270800 33007KT 4SM BR OVC018
     FM271400 35008G14KT 6SM BR OVC018
     FM271800 02006KT P6SM BKN015
     FM280200 VRB04KT P6SM BKN015=



000
FTUS43 KILX 270500 CCA
TAFSPI
TAF COR
KSPI 270539Z 2706/2806 VRB03KT P6SM OVC030
     FM270800 33006KT P6SM OVC030
     FM271400 35008G15KT P6SM OVC025
     FM271800 02006KT P6SM BKN030
     FM280200 VRB03KT P6SM BKN030=



000
FTUS43 KILX 270500 CCA
TAFDEC
TAF COR
KDEC 270539Z 2706/2806 23004KT 3SM BR OVC015
     FM270900 33006KT 4SM BR OVC015
     FM271400 36008G15KT 6SM BR OVC015
     FM271900 02006KT P6SM BKN015
     FM280300 VRB03KT P6SM BKN015=



000
FTUS43 KILX 270500 CCA
TAFCMI
TAF COR
KCMI 270539Z 2706/2806 20004KT 3SM BR OVC005
     FM271000 33006KT 4SM BR OVC006
     FM271500 36008G15KT 6SM BR OVC007
     FM272100 02006KT P6SM BKN012
     FM280400 VRB03KT P6SM BKN015=



000
FTUS43 KILX 270500
TAFPIA
TAF
KPIA 270527Z 2706/2806 VRB03KT 4SM BR OVC018
     FM271400 35008G14KT 6SM BR OVC018
     FM271800 02006KT P6SM BKN015
     FM280200 VRB04KT P6SM BKN015=



000
FTUS43 KILX 270500
TAFSPI
TAF
KSPI 270527Z 2706/2806 VRB03KT P6SM OVC030
     FM271400 35008G15KT P6SM OVC025
     FM271800 02006KT P6SM BKN030
     FM280200 VRB03KT P6SM BKN030=



000
FTUS43 KILX 270500
TAFCMI
TAF
KCMI 270527Z 2706/2806 20004KT 3SM BR OVC005
     FM271500 36008G15KT 6SM BR OVC005
     FM272100 02006KT P6SM BKN012
     FM280400 VRB03KT P6SM BKN015=



000
FTUS43 KILX 270500
TAFBMI
TAF
KBMI 270527Z 2706/2806 23003KT 2SM BR OVC005
     FM271500 36008G15KT 5SM BR OVC005
     FM272000 03006KT P6SM BKN008
     FM280300 VRB05KT P6SM BKN012=



000
FTUS43 KILX 270500
TAFDEC
TAF
KDEC 270527Z 2706/2806 23004KT 3SM BR OVC015
     FM271400 36008G15KT 6SM BR OVC015
     FM271900 02006KT P6SM BKN015
     FM280300 VRB03KT P6SM BKN015=



000
FTUS43 KILX 270200 AAA
TAFPIA
TAF AMD
KPIA 270222Z 2702/2724 20006KT 3SM BR OVC018
     FM270600 33008G14KT 4SM BR OVC012
     FM271400 36008G14KT 6SM BR OVC015
     FM271800 02006KT P6SM BKN015=



000
FTUS43 KILX 270100 AAA
TAFCMI
TAF AMD
KCMI 270123Z 2701/2724 19007KT 2SM -FZDZ BR OVC004
     FM270500 22006KT 3SM BR OVC007
     FM270900 33008G14KT 4SM BR OVC007
     FM271500 36008G15KT 6SM BR OVC008
     FM272100 02006KT P6SM BKN012=



000
FTUS43 KILX 262300 RRA
TAFBMI
TAF
KBMI 262343Z 2700/2724 19010KT 1SM -FZDZ BR OVC004
     FM270300 22008KT 3SM BR OVC005
     FM270800 33008G15KT 4SM BR OVC005
     FM271500 36008G15KT 5SM BR OVC006
     FM272000 03006KT P6SM BKN012=



000
FTUS43 KILX 262300 RRA
TAFCMI
TAF
KCMI 262343Z 2700/2724 19007KT 3SM -FZDZ BR OVC007
     FM270500 22006KT 3SM BR OVC007
     FM270900 33008G14KT 4SM BR OVC007
     FM271500 36008G15KT 6SM BR OVC008
     FM272100 02006KT P6SM BKN012=



000
FTUS43 KILX 262300 RRA
TAFDEC
TAF
KDEC 262343Z 2700/2724 18007KT 3SM BR OVC008
     FM270700 33008G14KT 4SM BR OVC008
     FM271400 36008G15KT 6SM BR OVC008
     FM271900 02006KT P6SM BKN015=



000
FTUS43 KILX 262300 RRA
TAFPIA
TAF
KPIA 262343Z 2700/2724 20006KT 3SM BR OVC004
     FM270600 33008G14KT 4SM BR OVC008
     FM271400 36008G14KT 6SM BR OVC008
     FM271800 02006KT P6SM BKN015=



000
FTUS43 KILX 262300 RRA
TAFSPI
TAF
KSPI 262343Z 2700/2724 19007KT P6SM OVC030
     FM270600 33008G14KT 4SM BR OVC025
     FM271400 36008G15KT P6SM OVC025
     FM271800 02006KT P6SM BKN015=



000
FTUS43 KILX 262100 AAA
TAFCMI
TAF AMD
KCMI 262157Z 2622/2718 18005KT P6SM BKN010 OVC035
     FM270300 19004KT 4SM BR SCT006 OVC012
     FM271000 33008KT 4SM BR SCT005 OVC010=



000
FTUS43 KILX 262100 AAC
TAFDEC
TAF AMD
KDEC 262150Z 2622/2718 20007KT P6SM BKN012 BKN070
     FM270200 23005KT 5SM BR OVC020
     FM270900 33008KT 4SM BR SCT005 OVC010=



000
FTUS43 KILX 262100 AAD
TAFSPI
TAF AMD
KSPI 262148Z 2622/2718 19008KT P6SM BKN012 OVC030
     FM270100 24007KT 6SM BR OVC020
     FM270800 33008KT 4SM BR SCT005 OVC010=



000
FTUS43 KILX 262100 AAC
TAFBMI
TAF AMD
KBMI 262145Z 2622/2718 23007KT P6SM OVC006
     FM270200 19006KT 4SM BR BKN006 OVC012
     FM270900 33008KT 4SM BR BKN005 OVC010=



000
FTUS43 KILX 262100 AAB
TAFPIA
TAF AMD
KPIA 262144Z 2622/2718 17010KT 6SM BR VCSH OVC007
     FM270100 21005KT 4SM BR SCT006 OVC012
     FM270800 33008KT 4SM BR SCT005 OVC010=



000
FTUS43 KILX 262000 AAC
TAFSPI
TAF AMD
KSPI 262005Z 2620/2718 20008KT P6SM BKN020 OVC070
      TEMPO 2620/2622 SCT020 OVC070
     FM270100 24007KT 6SM BR OVC020
     FM270800 33008KT 4SM BR SCT005 OVC010=



000
FTUS43 KILX 262000 AAB
TAFBMI
TAF AMD
KBMI 262002Z 2620/2718 23007KT P6SM BKN015
      TEMPO 2620/2623 4SM -SN BR BKN006
     FM262300 18008KT 5SM BR VCSH OVC012
     FM270200 19006KT 4SM BR BKN006 OVC012
     FM270900 33008KT 4SM BR BKN005 OVC010=



000
FTUS43 KILX 261900 AAB
TAFDEC
TAF AMD
KDEC 261906Z 2619/2718 18007KT P6SM SCT025 BKN060
      TEMPO 2619/2623 1SM -SN BKN022
     FM270200 23005KT 5SM BR OVC020
     FM270900 33008KT 4SM BR SCT005 OVC010=



000
FTUS43 KILX 261800 AAB
TAFSPI
TAF AMD
KSPI 261859Z 2619/2718 20008KT P6SM VCSH BKN020 OVC050
      TEMPO 2619/2623 2SM -SN BR OVC019
     FM270100 24007KT 6SM BR OVC020
     FM270800 33008KT 4SM BR SCT005 OVC010=



000
FTUS43 KILX 261800 CCA
TAFBMI
TAF AMD
KBMI 261848Z 2619/2718 23007KT P6SM BKN040 OVC050
      TEMPO 2619/2621 1SM -SN BR OVC015
     FM262100 18008KT 5SM BR VCSH OVC012
     FM270200 19006KT 4SM BR BKN006 OVC012
     FM270900 33008KT 4SM BR BKN005 OVC010=



000
FTUS43 KILX 261800 AAA
TAFPIA
TAF AMD
KPIA 261837Z 2619/2718 21007KT P6SM BKN020
      TEMPO 2619/2620 4SM -SN BR OVC015
     FM262000 19010KT 6SM BR VCSH OVC012
     FM270100 21005KT 4SM BR SCT006 OVC012
     FM270800 33008KT 4SM BR SCT005 OVC010=



000
FTUS43 KILX 261800 AAA
TAFBMI
TAF AMD
KBMI 261834Z 2619/2718 23007KT P6SM BKN040 OVC050
      TEMPO 2619/2621 4SM -SN BR OVC015
     FM262100 18008KT 5SM BR VCSH OVC012
     FM270200 19006KT 4SM BR BKN006 OVC012
     FM270900 33008KT 4SM BR BKN005 OVC010=



000
FTUS43 KILX 261800 AAA
TAFDEC
TAF AMD
KDEC 261817Z 2618/2718 20008KT P6SM VCSH BKN070
      TEMPO 2618/2619 1SM -SN BKN030
     FM261900 18007KT P6SM SCT025 BKN060
      TEMPO 2619/2623 3SM -SN BKN022
     FM270200 23005KT 5SM BR OVC020
     FM270900 33008KT 4SM BR SCT005 OVC010=



000
FTUS43 KILX 261800 AAA
TAFSPI
TAF AMD
KSPI 261816Z 2618/2718 20008KT P6SM VCSH BKN025 OVC050
      TEMPO 2618/2619 1/4SM +SN OVC010
     FM261900 23008KT P6SM VCSH BKN025 OVC050
      TEMPO 2619/2623 1SM -SN BR OVC025
     FM270100 24007KT 6SM BR OVC020
     FM270800 33008KT 4SM BR SCT005 OVC010=



000
FTUS43 KILX 261700
TAFDEC
TAF
KDEC 261734Z 2618/2718 20008KT P6SM VCSH BKN070
     FM261900 18007KT P6SM SCT025 BKN060
      TEMPO 2619/2623 3SM -SN BKN022
     FM270200 23005KT 5SM BR OVC020
     FM270900 33008KT 4SM BR SCT005 OVC010=



000
FTUS43 KILX 261700
TAFSPI
TAF
KSPI 261734Z 2618/2718 20008KT P6SM VCSH BKN025 OVC050
      TEMPO 2618/2621 1SM -SN BR OVC020
     FM270100 24007KT 6SM BR OVC020
     FM270800 33008KT 4SM BR SCT005 OVC010=



000
FTUS43 KILX 261700
TAFBMI
TAF
KBMI 261734Z 2618/2718 23007KT P6SM BKN025 OVC050
      TEMPO 2618/2621 1SM -SN BR OVC015
     FM262100 18008KT 5SM BR VCSH OVC012
     FM270200 19006KT 4SM BR BKN006 OVC012
     FM270900 33008KT 4SM BR BKN005 OVC010=



000
FTUS43 KILX 261700
TAFCMI
TAF
KCMI 261734Z 2618/2718 33006KT P6SM VCSH BKN015
     FM261900 23007KT P6SM BKN015 OVC050
      TEMPO 2619/2623 1SM -SN BKN022
     FM270300 19004KT 4SM BR SCT006 OVC012
     FM271000 33008KT 4SM BR SCT005 OVC010=



000
FTUS43 KILX 261700
TAFPIA
TAF
KPIA 261734Z 2618/2718 21007KT P6SM SCT015 OVC060
      TEMPO 2618/2620 3/4SM -SN BR OVC015
     FM262000 19010KT 6SM BR VCSH OVC012
     FM270100 21005KT 4SM BR SCT006 OVC012
     FM270800 33008KT 4SM BR SCT005 OVC010=



000
FTUS43 KILX 261700 AAA
TAFSPI
TAF AMD
KSPI 261717Z 2617/2712 20008KT P6SM VCSH BKN025 OVC050
      TEMPO 2617/2620 1SM -SN BR OVC020
     FM270100 24007KT 6SM BR OVC020=



000
FTUS43 KILX 261700 AAC
TAFPIA
TAF AMD
KPIA 261703Z 2617/2712 21007KT P6SM SCT015 OVC060
      TEMPO 2617/2620 3/4SM -SN BR OVC015
     FM262000 19010KT 6SM BR VCSH OVC012
     FM270100 21005KT 4SM BR SCT006 OVC012=



000
FTUS43 KILX 261500 AAA
TAFCMI
TAF AMD
KCMI 261544Z 2616/2712 33006KT P6SM BKN015
     FM261900 23007KT P6SM VCSH BKN015 OVC050
     FM270300 19004KT 4SM BR SCT006 OVC012=



000
FTUS43 KILX 261500 CCA
TAFPIA
TAF COR
KPIA 261543Z 2616/2712 VRB04KT 3/4SM -SN OVC022
     FM261700 21007KT P6SM SCT015 OVC060
      TEMPO 2617/2620 3SM -SN BR OVC015
     FM262000 19010KT 6SM BR VCSH OVC012
     FM270100 21005KT 4SM BR SCT006 OVC012=



000
FTUS43 KILX 261500 AAB
TAFPIA
TAF AMD
KPIA 261541Z 2616/2712 VRB04KT P6SM SCT025 BKN080
      TEMPO 2616/2617 1 1/2SM -SN BKN020
     FM261700 21007KT P6SM SCT015 OVC060
      TEMPO 2617/2620 3SM -SN BR OVC015
     FM262000 19010KT 6SM BR VCSH OVC012
     FM270100 21005KT 4SM BR SCT006 OVC012=



000
FTUS43 KILX 261400 AAA
TAFPIA
TAF AMD
KPIA 261447Z 2615/2712 VRB04KT P6SM SCT025 BKN080
      TEMPO 2615/2617 BKN020
     FM261700 21007KT P6SM SCT015 OVC060
      TEMPO 2617/2620 3SM -SN BR OVC015
     FM262000 19010KT 6SM BR VCSH OVC012
     FM270100 21005KT 4SM BR SCT006 OVC012=



000
FTUS43 KILX 261100
TAFPIA
TAF
KPIA 261131Z 2612/2712 VRB04KT P6SM SCT025 BKN080
     FM261500 21007KT P6SM SCT015 OVC060
      TEMPO 2617/2620 3SM -SN BR OVC015
     FM262000 19010KT 6SM BR VCSH OVC012
     FM270100 21005KT 4SM BR SCT006 OVC012=



000
FTUS43 KILX 261100
TAFDEC
TAF
KDEC 261131Z 2612/2712 30005KT P6SM SCT010 BKN080
      TEMPO 2612/2614 BKN010
     FM261500 24007KT P6SM SCT020 OVC060
     FM261800 20008KT P6SM VCSH BKN025 OVC050
     FM270200 23005KT 5SM BR OVC020=



000
FTUS43 KILX 261100
TAFBMI
TAF
KBMI 261131Z 2612/2712 32005KT P6SM SCT015 BKN080
     FM261600 23007KT P6SM SCT015 OVC050
      TEMPO 2618/2621 3SM -SN BR OVC015
     FM262100 18008KT 5SM BR VCSH OVC012
     FM270200 19006KT 4SM BR BKN006 OVC012=



000
FTUS43 KILX 261100
TAFCMI
TAF
KCMI 261131Z 2612/2712 34006KT P6SM BKN015
     FM261500 33006KT P6SM SCT015 BKN080
     FM261900 23007KT P6SM VCSH BKN015 OVC050
     FM270300 19004KT 4SM BR SCT006 OVC012=



000
FTUS43 KILX 261100
TAFSPI
TAF
KSPI 261131Z 2612/2712 30005KT P6SM BKN080
     FM261500 24007KT P6SM SCT025 OVC060
     FM261700 20008KT P6SM VCSH BKN025 OVC050
     FM270100 24007KT 6SM BR OVC020=



000
FTUS43 KILX 261100 AAA
TAFDEC
TAF AMD
KDEC 261102Z 2611/2706 32006KT P6SM BKN017
     FM261300 31005KT P6SM SCT017 BKN080
     FM261700 25007KT P6SM BKN025
     FM261900 18008KT P6SM VCSH OVC025=



000
FTUS43 KILX 260700 AAA
TAFBMI
TAF AMD
KBMI 260706Z 2607/2706 34010KT P6SM SCT015 BKN080
      TEMPO 2607/2609 BKN015
     FM261700 23007KT P6SM BKN025
     FM262000 18008KT P6SM OVC025
      TEMPO 2620/2623 5SM -SN BR OVC015=



000
FTUS43 KILX 260500
TAFCMI
TAF
KCMI 260521Z 2606/2706 36013G20KT P6SM BKN015
     FM261200 32008KT P6SM SCT025
     FM261800 26005KT P6SM SCT025 BKN050
     FM262200 20007KT P6SM BKN025
      TEMPO 2623/2703 5SM -SN BR OVC015=



000
FTUS43 KILX 260500
TAFPIA
TAF
KPIA 260521Z 2606/2706 01009KT P6SM SCT120
     FM261000 32004KT P6SM SCT025 BKN080
     FM261500 23007KT P6SM BKN025
     FM261800 18008KT P6SM OVC025
      TEMPO 2618/2622 5SM -SN BR OVC015=



000
FTUS43 KILX 260500
TAFDEC
TAF
KDEC 260521Z 2606/2706 34013G20KT P6SM BKN017
     FM260900 32004KT P6SM SCT015 BKN080
     FM261700 25007KT P6SM BKN025
     FM261900 18008KT P6SM OVC025=



000
FTUS43 KILX 260500
TAFSPI
TAF
KSPI 260521Z 2606/2706 34009KT P6SM BKN017
     FM260700 32004KT P6SM SCT015 BKN080
     FM261500 25007KT P6SM BKN025
     FM261800 18008KT P6SM OVC025=



000
FTUS43 KILX 260500
TAFBMI
TAF
KBMI 260521Z 2606/2706 36009KT P6SM BKN015
     FM260700 32004KT P6SM SCT015 BKN080
     FM261700 23007KT P6SM BKN025
     FM262000 18008KT P6SM OVC025
      TEMPO 2620/2623 5SM -SN BR OVC015=



000
FTUS43 KILX 260400 AAB
TAFCMI
TAF AMD
KCMI 260429Z 2604/2624 02015G25KT P6SM OVC015
     FM260500 36010KT P6SM BKN015
     FM261200 30008KT P6SM SCT025
     FM261800 26005KT P6SM SCT025 BKN050
     FM262200 20007KT P6SM BKN025=



000
FTUS43 KILX 260400 AAB
TAFDEC
TAF AMD
KDEC 260428Z 2604/2624 01015G25KT P6SM OVC015
     FM260800 32008KT P6SM SCT015
     FM261400 27005KT P6SM SCT025 BKN080
     FM261900 20007KT P6SM BKN025=



000
FTUS43 KILX 260200 AAA
TAFSPI
TAF AMD
KSPI 260250Z 2603/2624 36013G20KT P6SM OVC015
     FM260500 34008KT P6SM SCT035
     FM261300 29005KT P6SM SCT025 BKN050
     FM261800 20007KT P6SM BKN025=



000
FTUS43 KILX 260100 AAA
TAFCMI
TAF AMD
KCMI 260147Z 2602/2624 02015G25KT P6SM OVC025
     FM260500 36010KT P6SM BKN025
     FM261200 30008KT P6SM SCT025
     FM261800 26005KT P6SM SCT025 BKN050
     FM262200 20007KT P6SM BKN025=



000
FTUS43 KILX 260100 AAA
TAFCMI
TAF AMD
KCMI 260147Z 2602/2624 02015G25KT P6SM OVC025
     FM260500 36010KT P6SM BKN025
     FM261200 30008KT P6SM SCT025
     FM261800 26005KT P6SM SCT025 BKN050
     FM262200 20007KT P6SM BKN025=



000
FTUS43 KILX 260100 AAA
TAFBMI
TAF AMD
KBMI 260145Z 2602/2624 02016G25KT P6SM OVC015
     FM260500 01009KT P6SM SCT035
     FM261400 30004KT P6SM SCT015 BKN050
     FM261900 20007KT P6SM BKN025=



000
FTUS43 KILX 260100 AAA
TAFBMI
TAF AMD
KBMI 260145Z 2602/2624 02016G25KT P6SM OVC015
     FM260500 01009KT P6SM SCT035
     FM261400 30004KT P6SM SCT015 BKN050
     FM261900 20007KT P6SM BKN025=



000
FTUS43 KILX 260100 AAB
TAFPIA
TAF AMD
KPIA 260144Z 2602/2624 02010G18KT P6SM BKN050
     FM260300 01009KT P6SM SCT050
     FM260800 33004KT P6SM SCT015 BKN050
     FM261400 25007KT P6SM BKN025
     FM261900 20008KT P6SM OVC025=



000
FTUS43 KILX 260100 AAB
TAFPIA
TAF AMD
KPIA 260144Z 2602/2624 02010G18KT P6SM BKN050
     FM260300 01009KT P6SM SCT050
     FM260800 33004KT P6SM SCT015 BKN050
     FM261400 25007KT P6SM BKN025
     FM261900 20008KT P6SM OVC025=



000
FTUS43 KILX 260100 AAA
TAFDEC
TAF AMD
KDEC 260101Z 2601/2624 01015G25KT P6SM OVC015
     FM261000 32008KT P6SM SCT015
     FM261400 27005KT P6SM SCT025 BKN080
     FM261900 20007KT P6SM BKN025=



000
FTUS43 KILX 260000 AAA
TAFPIA
TAF AMD
KPIA 260009Z 2600/2624 02012G20KT P6SM BKN035
     FM260500 01009KT P6SM SCT035
     FM260800 33004KT P6SM SCT015 BKN050
     FM261400 25007KT P6SM BKN025
     FM261900 20008KT P6SM OVC025=



000
FTUS43 KILX 252300
TAFSPI
TAF
KSPI 252320Z 2600/2624 36015G25KT P6SM OVC015
      TEMPO 2600/2601 4SM -SNRA OVC008
     FM260800 34008KT P6SM SCT015
     FM261300 29005KT P6SM SCT025 BKN080
     FM261800 20007KT P6SM BKN025=



000
FTUS43 KILX 252300
TAFBMI
TAF
KBMI 252320Z 2600/2624 02016G25KT P6SM OVC015
     FM260900 01009KT P6SM SCT015
     FM261400 30004KT P6SM SCT015 BKN050
     FM261900 20007KT P6SM BKN025=



000
FTUS43 KILX 252300
TAFDEC
TAF
KDEC 252320Z 2600/2624 01015G25KT P6SM OVC015
      TEMPO 2600/2602 4SM -SNRA OVC008
     FM261000 32008KT P6SM SCT015
     FM261400 27005KT P6SM SCT025 BKN080
     FM261900 20007KT P6SM BKN025=



000
FTUS43 KILX 252300
TAFPIA
TAF
KPIA 252320Z 2600/2624 02013G23KT P6SM OVC015
     FM260500 01009KT P6SM SCT015
     FM260800 33004KT P6SM SCT015 BKN050
     FM261400 25007KT P6SM BKN025
     FM261900 20008KT P6SM OVC025=



000
FTUS43 KILX 252300
TAFCMI
TAF
KCMI 252320Z 2600/2624 02015G25KT P6SM OVC015
      TEMPO 2600/2602 3SM -SN OVC008
     FM261300 30008KT P6SM SCT015
     FM261800 26005KT P6SM SCT025 BKN050
     FM262200 20007KT P6SM BKN025=



000
FTUS43 KILX 252200 AAB
TAFSPI
TAF AMD
KSPI 252241Z 2523/2618 01017KT P6SM -RASN OVC010
     FM260000 36015G25KT P6SM OVC015
     FM260600 34008KT P6SM BKN015
     FM261300 26005KT P6SM SCT050 BKN100=



000
FTUS43 KILX 252200 AAA
TAFPIA
TAF AMD
KPIA 252230Z 2523/2618 02013G23KT P6SM OVC015
     FM260400 02007KT P6SM BKN015
     FM260800 35004KT P6SM SCT015
     FM261300 21007KT P6SM SCT015 BKN050=



000
FTUS43 KILX 251900 AAA
TAFCMI
TAF AMD
KCMI 251944Z 2520/2618 04014G22KT 3SM -RASN BR OVC006
     FM260000 36020G28KT P6SM OVC015
     FM260600 34011KT P6SM BKN015
     FM261400 30007KT P6SM SCT050 BKN100=



000
FTUS43 KILX 251900 AAA
TAFSPI
TAF AMD
KSPI 251943Z 2520/2618 02016G24KT 4SM -SHRA BR OVC006
     FM252100 02020G28KT 2SM -RASN BR OVC005
     FM260000 36015G25KT P6SM OVC015
     FM260600 34008KT P6SM BKN015
     FM261300 26005KT P6SM SCT050 BKN100=



000
FTUS43 KILX 251900 AAA
TAFDEC
TAF AMD
KDEC 251942Z 2520/2618 03015KT 2SM -SHRA BR OVC005
     FM252100 02021G28KT 2SM -RASN BR OVC006
     FM260000 01020G26KT P6SM OVC015
     FM260700 35011KT P6SM BKN015
     FM261300 30006KT P6SM SCT050 BKN100=



000
FTUS43 KILX 251700
TAFDEC
TAF
KDEC 251728Z 2518/2618 06010KT P6SM -SHRA BKN025 OVC035
     FM252100 03021G28KT 2SM -RASN BR OVC008
     FM260000 01020G26KT P6SM OVC015
     FM260700 35011KT P6SM BKN015
     FM261300 30006KT P6SM SCT050 BKN100=



000
FTUS43 KILX 251700
TAFCMI
TAF
KCMI 251728Z 2518/2618 06012KT 4SM -RA BR BKN025 OVC040
     FM252000 04020G28KT 3SM -RASN BR OVC006
     FM260000 36020G28KT P6SM OVC015
     FM260600 34011KT P6SM BKN015
     FM261400 30007KT P6SM SCT050 BKN100=



000
FTUS43 KILX 251700
TAFPIA
TAF
KPIA 251728Z 2518/2618 04015G23KT 1 1/2SM -SN BR BKN006 OVC012
     FM252300 02013G23KT P6SM OVC015
     FM260400 02007KT P6SM BKN015
     FM260800 35004KT P6SM SCT015
     FM261300 21007KT P6SM SCT015 BKN050=



000
FTUS43 KILX 251700
TAFSPI
TAF
KSPI 251728Z 2518/2618 03015G25KT 4SM -RA BR BKN025 OVC035
     FM252100 02020G28KT 2SM -RASN BR OVC006
     FM260000 36015G25KT P6SM OVC015
     FM260600 34008KT P6SM BKN015
     FM261300 26005KT P6SM SCT050 BKN100=



000
FTUS43 KILX 251700
TAFBMI
TAF
KBMI 251728Z 2518/2618 04018G27KT 1SM -SN OVC002
     FM252300 02020G27KT P6SM OVC015
     FM260600 36010KT P6SM BKN015
     FM261300 26007KT P6SM SCT015 BKN050=



000
FTUS43 KILX 251600 AAA
TAFCMI
TAF AMD
KCMI 251654Z 2517/2612 06012G21KT 4SM -RA BR BKN025 OVC040
     FM252000 04018G28KT 1SM -SN BR OVC006
     FM260000 01018G28KT P6SM OVC015
     FM260600 36016KT P6SM BKN025=



000
FTUS43 KILX 251600 AAB
TAFSPI
TAF AMD
KSPI 251653Z 2517/2612 06009KT P6SM -SHRA SCT025 OVC035
     FM251900 03015G25KT 2SM -RASN BR OVC008
     FM252200 02018G28KT 1 1/2SM -SN BR OVC006
     FM260000 01015G25KT P6SM OVC020
     FM260600 36013KT P6SM BKN025=



000
FTUS43 KILX 251600 AAA
TAFDEC
TAF AMD
KDEC 251653Z 2517/2612 06010KT P6SM -SHRA OVC030
     FM251900 03015G25KT 2SM -RASN BR OVC008
     FM252300 02018G28KT 1 1/2SM -SN BR OVC006
     FM260100 01015G25KT P6SM OVC020
     FM260700 36013KT P6SM BKN025=



000
FTUS43 KILX 251600 AAB
TAFBMI
TAF AMD
KBMI 251651Z 2517/2612 06014KT 1 1/2SM -RASN BR OVC002
     FM251800 04017G27KT 1SM -SN OVC002
     FM260000 02017G27KT P6SM OVC015
     FM260600 36015KT P6SM BKN020=



000
FTUS43 KILX 251600 AAB
TAFPIA
TAF AMD
KPIA 251651Z 2517/2612 05013G23KT 1 1/2SM -SN BR BKN006 OVC012
     FM251900 03015G25KT 1SM -SN BR OVC006
     FM252300 02013G23KT P6SM OVC015
     FM260400 36010KT P6SM BKN025=



000
FTUS43 KILX 251300 AAA
TAFPIA
TAF AMD
KPIA 251350Z 2514/2612 06012KT 4SM -RA BR SCT006 OVC015
      TEMPO 2514/2517 2SM -RA BR OVC006
     FM251700 05013G23KT 2SM -RASN BR BKN006 OVC012
     FM251900 03015G25KT 1SM -SN BR OVC006
     FM252300 02013G23KT P6SM OVC015
     FM260400 36010KT P6SM BKN025=



000
FTUS43 KILX 251300 AAA
TAFSPI
TAF AMD
KSPI 251326Z 2513/2612 17004KT 6SM -RA BR OVC025
     FM251500 06009KT 3SM -RA BR SCT006 OVC012
     FM251800 03015G25KT 2SM -RA BR OVC008
     FM252200 02018G28KT 1 1/2SM -SN BR OVC006
     FM260000 01015G25KT P6SM OVC020
     FM260600 36013KT P6SM BKN025=



000
FTUS43 KILX 251300 AAA
TAFBMI
TAF AMD
KBMI 251325Z 2513/2612 06014KT 3SM -RA BR SCT006 OVC015
      TEMPO 2515/2518 1 1/2SM -RASN BR OVC006
     FM251900 04017G27KT 1SM -SN OVC007
     FM260000 02017G27KT P6SM OVC015
     FM260600 36015KT P6SM BKN020=



000
FTUS43 KILX 251100
TAFBMI
TAF
KBMI 251139Z 2512/2612 09007KT P6SM VCSH OVC060
     FM251500 06012G18KT 5SM -RA BR OVC040
      TEMPO 2516/2519 3SM -RASN BR OVC015
     FM251900 04017G27KT 1SM -SN OVC007
     FM260000 02017G27KT P6SM OVC015
     FM260600 36015KT P6SM BKN020=



000
FTUS43 KILX 251100
TAFCMI
TAF
KCMI 251139Z 2512/2612 14007KT P6SM VCSH OVC050
     FM251400 09008KT 6SM -RA BR SCT015 OVC035
     FM251700 06012G21KT 2SM -RA BR OVC007
     FM252000 04018G28KT 1SM -SN BR OVC006
     FM260000 01018G28KT P6SM OVC015
     FM260600 36016KT P6SM BKN025=



000
FTUS43 KILX 251100
TAFPIA
TAF
KPIA 251139Z 2512/2612 08007KT P6SM -RA OVC035
     FM251400 04007KT 5SM -RA BR OVC025
      TEMPO 2516/2518 3SM -RASN BR OVC012
     FM251900 03015G25KT 1SM -SN BR OVC006
     FM252300 02013G23KT P6SM OVC015
     FM260400 36010KT P6SM BKN025=



000
FTUS43 KILX 251100
TAFSPI
TAF
KSPI 251139Z 2512/2612 17004KT P6SM -RA OVC035
     FM251500 06009KT 3SM -RA BR SCT006 OVC012
     FM251800 03015G25KT 2SM -RA BR OVC008
     FM252200 02018G28KT 1 1/2SM -SN BR OVC006
     FM260000 01015G25KT P6SM OVC020
     FM260600 36013KT P6SM BKN025=



000
FTUS43 KILX 251100
TAFDEC
TAF
KDEC 251139Z 2512/2612 17004KT P6SM -RA OVC040
     FM251600 06009KT 3SM -RA BR SCT006 OVC012
     FM251900 03015G25KT 2SM -RA BR OVC008
     FM252300 02018G28KT 1 1/2SM -SN BR OVC006
     FM260100 01015G25KT P6SM OVC020
     FM260700 36013KT P6SM BKN025=



000
FTUS43 KILX 250500
TAFSPI
TAF
KSPI 250520Z 2506/2606 17006KT P6SM BKN100
     FM251100 08007KT P6SM VCSH OVC060
     FM251300 04007KT 3SM -RA BR OVC012
     FM252200 01015G23KT 2SM -SN BR OVC008
     FM260100 01012KT 5SM BR OVC025=



000
FTUS43 KILX 250500
TAFDEC
TAF
KDEC 250520Z 2506/2606 17006KT P6SM BKN100
     FM251200 12007KT P6SM VCSH OVC060
     FM251300 04007KT 3SM -RA BR OVC012
     FM252200 01015G23KT 2SM -SN BR OVC008
     FM260200 01012KT 5SM BR OVC025=



000
FTUS43 KILX 250500
TAFCMI
TAF
KCMI 250520Z 2506/2606 16006KT P6SM BKN100
     FM251200 09007KT P6SM VCSH OVC060
     FM251300 04007KT 3SM -RA BR OVC012
     FM252000 01015G23KT 1SM -SN BR OVC008
     FM260200 01012KT 5SM BR OVC025=



000
FTUS43 KILX 250500
TAFPIA
TAF
KPIA 250520Z 2506/2606 15006KT P6SM BKN100
     FM251100 08007KT P6SM VCSH OVC060
     FM251300 04007KT 3SM -RA BR OVC015
      TEMPO 2515/2517 3SM -RAPL BR OVC008
     FM251700 03014G20KT 1SM -SN OVC008
     FM252200 01015G23KT 3SM -SN BR OVC012
     FM260100 01012KT 5SM BR OVC025=



000
FTUS43 KILX 250500
TAFBMI
TAF
KBMI 250520Z 2506/2606 17006KT P6SM BKN100
     FM251200 09007KT P6SM VCSH OVC060
     FM251300 04007KT 3SM -RA BR OVC015
      TEMPO 2516/2518 3SM -RAPL BR OVC008
     FM251800 03014G20KT 1SM -SN OVC008
     FM252300 01015G23KT 3SM -SN BR OVC012
     FM260100 01012KT 5SM BR OVC025=



    US Dept of Commerce
    National Oceanic and Atmospheric Administration
    National Weather Service
    1325 East West Highway
    Silver Spring, MD 20910
    Page Author: NWS Internet Services Team
Disclaimer
Information Quality
Credits
Glossary
Privacy Policy
Freedom of Information Act (FOIA)
About Us
Career Opportunities